createdAt,value
2017-06-22T00:02:00.589Z,7.90
2017-06-22T00:04:28.958Z,6.20
2017-06-22T00:06:58.055Z,8.10
2017-06-22T00:09:27.259Z,9.00
2017-06-22T00:11:55.630Z,16.97
2017-06-22T00:14:24.927Z,7.00
2017-06-22T00:16:54.006Z,6.73
2017-06-22T00:19:22.413Z,5.77
2017-06-22T00:21:51.496Z,5.50
2017-06-22T00:24:21.406Z,7.13
2017-06-22T00:26:50.495Z,9.23
2017-06-22T00:29:19.598Z,6.10
2017-06-22T00:31:48.799Z,6.63
2017-06-22T00:34:17.855Z,6.20
2017-06-22T00:36:46.263Z,4.73
2017-06-22T00:39:15.338Z,7.00
2017-06-22T00:41:43.847Z,4.60
2017-06-22T00:44:12.235Z,7.20
2017-06-22T00:46:40.599Z,5.97
2017-06-22T00:49:09.694Z,6.03
2017-06-22T00:51:38.830Z,6.97
2017-06-22T00:54:07.401Z,6.10
2017-06-22T00:56:35.701Z,7.80
2017-06-22T00:59:04.036Z,6.37
2017-06-22T01:01:32.517Z,6.13
2017-06-22T01:04:01.572Z,5.90
2017-06-22T01:06:30.014Z,7.63
2017-06-22T01:08:58.366Z,7.93
2017-06-22T01:11:27.451Z,6.60
2017-06-22T01:13:55.886Z,7.50
2017-06-22T01:16:24.197Z,6.40
2017-06-22T01:18:53.299Z,6.63
2017-06-22T01:21:22.404Z,8.10
2017-06-22T01:23:51.695Z,6.30
2017-06-22T01:26:20.024Z,7.40
2017-06-22T01:28:48.357Z,5.90
2017-06-22T01:31:17.442Z,7.47
2017-06-22T01:33:46.501Z,7.87
2017-06-22T01:36:14.914Z,7.23
2017-06-22T01:38:43.983Z,7.20
2017-06-22T01:41:12.387Z,5.20
2017-06-22T01:43:40.823Z,9.10
2017-06-22T01:46:09.155Z,6.20
2017-06-22T01:48:37.530Z,6.00
2017-06-22T01:51:06.002Z,7.57
2017-06-22T01:53:35.066Z,6.23
2017-06-22T01:56:03.479Z,6.43
2017-06-22T01:58:31.854Z,8.37
2017-06-22T02:01:00.923Z,7.80
2017-06-22T02:03:29.250Z,7.20
2017-06-22T02:05:58.300Z,5.40
2017-06-22T02:08:26.702Z,6.50
2017-06-22T02:10:55.768Z,8.07
2017-06-22T02:13:24.271Z,6.80
2017-06-22T02:15:53.352Z,6.20
2017-06-22T02:18:21.646Z,5.77
2017-06-22T02:20:49.982Z,5.87
2017-06-22T02:23:18.276Z,7.47
2017-06-22T02:25:46.793Z,7.87
2017-06-22T02:28:15.115Z,12.43
2017-06-22T02:30:44.253Z,12.27
2017-06-22T02:33:13.555Z,10.60
2017-06-22T02:35:41.878Z,12.00
2017-06-22T02:38:10.205Z,7.87
2017-06-22T02:40:39.431Z,7.73
2017-06-22T02:43:08.517Z,12.13
2017-06-22T02:45:37.696Z,9.03
2017-06-22T02:48:06.997Z,10.00
2017-06-22T02:50:36.104Z,7.67
2017-06-22T02:53:04.416Z,7.90
2017-06-22T02:55:32.741Z,9.53
2017-06-22T02:58:01.815Z,6.83
2017-06-22T03:00:30.920Z,7.73
2017-06-22T03:02:59.322Z,9.47
2017-06-22T03:05:27.765Z,13.23
2017-06-22T03:08:07.947Z,7.53
2017-06-22T03:10:36.415Z,8.40
2017-06-22T03:13:04.798Z,12.20
2017-06-22T03:15:33.930Z,19.57
2017-06-22T03:18:02.373Z,18.80
2017-06-22T03:20:31.555Z,11.53
2017-06-22T03:22:59.873Z,7.70
2017-06-22T03:25:28.166Z,8.73
2017-06-22T03:27:56.617Z,8.30
2017-06-22T03:30:26.059Z,10.67
2017-06-22T03:32:54.359Z,8.63
2017-06-22T03:35:22.775Z,9.40
2017-06-22T03:37:52.078Z,8.83
2017-06-22T03:40:20.541Z,9.30
2017-06-22T03:42:49.623Z,13.37
2017-06-22T03:45:18.939Z,9.90
2017-06-22T03:47:48.021Z,9.27
2017-06-22T03:50:16.323Z,12.00
2017-06-22T03:52:44.706Z,8.63
2017-06-22T03:55:13.780Z,8.90
2017-06-22T03:57:42.887Z,9.97
2017-06-22T04:00:11.982Z,8.33
2017-06-22T04:02:41.166Z,9.67
2017-06-22T04:05:10.243Z,8.97
2017-06-22T04:07:38.538Z,8.93
2017-06-22T04:10:07.629Z,10.20
2017-06-22T04:12:35.941Z,10.00
2017-06-22T04:15:04.499Z,10.73
2017-06-22T04:17:33.567Z,10.67
2017-06-22T04:20:02.671Z,10.20
2017-06-22T04:22:31.778Z,9.77
2017-06-22T04:25:00.263Z,10.20
2017-06-22T04:27:29.463Z,11.77
2017-06-22T04:29:57.771Z,10.40
2017-06-22T04:32:26.074Z,11.20
2017-06-22T04:34:54.491Z,11.03
2017-06-22T04:37:22.798Z,10.40
2017-06-22T04:39:51.430Z,11.37
2017-06-22T04:42:20.508Z,10.63
2017-06-22T04:44:49.635Z,8.20
2017-06-22T04:47:18.699Z,9.70
2017-06-22T04:49:47.107Z,7.27
2017-06-22T04:52:15.455Z,9.03
2017-06-22T04:54:43.876Z,8.30
2017-06-22T04:57:12.950Z,8.70
2017-06-22T04:59:41.418Z,13.90
2017-06-22T05:02:09.775Z,9.60
2017-06-22T05:04:38.204Z,10.43
2017-06-22T05:07:07.295Z,7.87
2017-06-22T05:09:36.375Z,8.07
2017-06-22T05:12:04.771Z,9.67
2017-06-22T05:14:33.117Z,10.07
2017-06-22T05:17:01.416Z,8.60
2017-06-22T05:19:30.937Z,13.90
2017-06-22T05:21:59.268Z,16.33
2017-06-22T05:24:28.399Z,11.40
2017-06-22T05:26:56.790Z,11.90
2017-06-22T05:29:25.163Z,9.23
2017-06-22T05:31:54.252Z,10.83
2017-06-22T05:34:23.353Z,12.37
2017-06-22T05:36:51.743Z,16.90
2017-06-22T05:39:20.072Z,14.60
2017-06-22T05:41:49.326Z,8.30
2017-06-22T05:44:17.693Z,7.80
2017-06-22T05:46:46.771Z,8.20
2017-06-22T05:49:15.856Z,9.03
2017-06-22T05:51:44.975Z,10.10
2017-06-22T05:54:13.443Z,10.10
2017-06-22T05:56:42.534Z,7.93
2017-06-22T05:59:11.848Z,10.40
2017-06-22T06:01:40.164Z,8.70
2017-06-22T06:04:08.495Z,9.37
2017-06-22T06:06:36.975Z,10.63
2017-06-22T06:09:05.274Z,7.60
2017-06-22T06:11:33.627Z,11.97
2017-06-22T06:14:02.443Z,12.50
2017-06-22T06:16:30.883Z,7.77
2017-06-22T06:18:59.275Z,8.17
2017-06-22T06:21:27.747Z,7.40
2017-06-22T06:23:56.559Z,7.73
2017-06-22T06:26:24.910Z,8.00
2017-06-22T06:28:54.119Z,6.07
2017-06-22T06:31:23.193Z,8.40
2017-06-22T06:33:52.511Z,7.10
2017-06-22T06:36:22.472Z,7.67
2017-06-22T06:38:50.804Z,7.23
2017-06-22T06:41:19.178Z,8.43
2017-06-22T06:43:47.579Z,11.03
2017-06-22T06:46:16.385Z,10.20
2017-06-22T06:48:44.687Z,8.50
2017-06-22T06:51:13.191Z,9.80
2017-06-22T06:53:42.382Z,13.33
2017-06-22T06:56:10.781Z,13.37
2017-06-22T06:58:39.111Z,10.60
2017-06-22T07:01:07.433Z,10.10
2017-06-22T07:03:36.518Z,10.50
2017-06-22T07:06:04.855Z,11.23
2017-06-22T07:08:33.376Z,11.20
2017-06-22T07:11:02.475Z,8.30
2017-06-22T07:13:30.911Z,7.67
2017-06-22T07:15:59.279Z,8.60
2017-06-22T07:18:27.586Z,8.77
2017-06-22T07:20:55.894Z,9.10
2017-06-22T07:23:24.273Z,9.37
2017-06-22T07:25:52.965Z,8.70
2017-06-22T07:28:21.337Z,7.83
2017-06-22T07:30:49.702Z,7.90
2017-06-22T07:33:18.814Z,8.80
2017-06-22T07:35:47.130Z,9.00
2017-06-22T07:38:15.889Z,10.20
2017-06-22T07:40:44.230Z,10.03
2017-06-22T07:43:13.136Z,7.80
2017-06-22T07:45:42.258Z,8.27
2017-06-22T07:48:10.607Z,8.20
2017-06-22T07:50:39.692Z,8.03
2017-06-22T07:53:09.309Z,9.37
2017-06-22T07:55:37.636Z,9.73
2017-06-22T07:58:05.963Z,11.73
2017-06-22T08:00:34.295Z,12.37
2017-06-22T08:03:02.639Z,10.57
2017-06-22T08:05:30.995Z,11.07
2017-06-22T08:07:59.372Z,12.83
2017-06-22T08:10:27.847Z,14.70
2017-06-22T08:12:56.942Z,11.67
2017-06-22T08:15:25.292Z,11.87
2017-06-22T08:17:53.618Z,12.40
2017-06-22T08:20:22.835Z,11.43
2017-06-22T08:22:51.172Z,12.67
2017-06-22T08:25:20.376Z,10.53
2017-06-22T08:27:48.851Z,12.27
2017-06-22T08:30:17.234Z,12.60
2017-06-22T08:32:45.614Z,11.23
2017-06-22T08:35:13.963Z,11.50
2017-06-22T08:37:42.358Z,12.17
2017-06-22T08:40:10.799Z,9.97
2017-06-22T08:42:39.106Z,13.80
2017-06-22T08:45:07.468Z,11.13
2017-06-22T08:47:35.880Z,12.53
2017-06-22T08:50:04.256Z,12.93
2017-06-22T08:52:33.352Z,11.70
2017-06-22T08:55:01.661Z,11.80
2017-06-22T08:57:30.203Z,13.23
2017-06-22T08:59:58.523Z,15.97
2017-06-22T09:02:26.830Z,12.57
2017-06-22T09:04:55.234Z,13.47
2017-06-22T09:07:24.307Z,12.30
2017-06-22T09:09:52.669Z,15.70
2017-06-22T09:12:20.979Z,14.40
2017-06-22T09:14:49.367Z,16.80
2017-06-22T09:17:18.441Z,14.03
2017-06-22T09:19:46.844Z,17.10
2017-06-22T09:22:15.912Z,15.00
2017-06-22T09:24:44.616Z,15.77
2017-06-22T09:27:12.955Z,19.63
2017-06-22T09:29:41.283Z,16.20
2017-06-22T09:32:09.856Z,17.20
2017-06-22T09:34:38.163Z,15.40
2017-06-22T09:37:06.723Z,13.77
2017-06-22T09:39:35.036Z,14.23
2017-06-22T09:42:03.589Z,18.07
2017-06-22T09:44:31.927Z,18.40
2017-06-22T09:47:00.222Z,19.07
2017-06-22T09:49:28.726Z,18.13
2017-06-22T09:51:57.033Z,22.07
2017-06-22T09:54:25.375Z,18.23
2017-06-22T09:56:53.873Z,19.67
2017-06-22T09:59:22.210Z,25.80
2017-06-22T10:01:51.303Z,20.00
2017-06-22T10:04:19.599Z,21.10
2017-06-22T10:06:48.275Z,23.73
2017-06-22T10:09:16.608Z,21.77
2017-06-22T10:11:45.118Z,18.03
2017-06-22T10:14:14.218Z,23.77
2017-06-22T10:16:43.320Z,20.43
2017-06-22T10:19:12.618Z,17.80
2017-06-22T10:21:40.938Z,18.40
2017-06-22T10:24:09.276Z,20.27
2017-06-22T10:26:37.646Z,16.80
2017-06-22T10:29:06.744Z,19.50
2017-06-22T10:31:35.354Z,18.47
2017-06-22T10:34:03.664Z,18.53
2017-06-22T10:36:32.227Z,17.13
2017-06-22T10:39:00.564Z,16.53
2017-06-22T10:41:28.943Z,22.43
2017-06-22T10:43:57.311Z,16.70
2017-06-22T10:46:26.849Z,15.90
2017-06-22T10:48:55.207Z,23.27
2017-06-22T10:51:24.409Z,21.97
2017-06-22T10:53:53.484Z,19.97
2017-06-22T10:56:22.707Z,27.13
2017-06-22T10:58:51.499Z,23.87
2017-06-22T11:01:19.871Z,21.30
2017-06-22T11:03:49.059Z,18.00
2017-06-22T11:06:17.862Z,24.80
2017-06-22T11:08:47.030Z,30.70
2017-06-22T11:11:15.343Z,18.90
2017-06-22T11:13:43.642Z,23.70
2017-06-22T11:16:11.999Z,20.67
2017-06-22T11:18:40.467Z,17.67
2017-06-22T11:21:09.567Z,25.60
2017-06-22T11:23:37.872Z,23.37
2017-06-22T11:26:06.249Z,20.53
2017-06-22T11:28:34.587Z,22.93
2017-06-22T11:31:02.928Z,25.00
2017-06-22T11:33:31.283Z,28.27
2017-06-22T11:35:59.598Z,31.67
2017-06-22T11:38:28.662Z,25.70
2017-06-22T11:40:57.006Z,25.23
2017-06-22T11:43:25.314Z,24.57
2017-06-22T11:45:53.628Z,24.00
2017-06-22T11:48:22.833Z,25.20
2017-06-22T11:50:51.907Z,23.60
2017-06-22T11:53:20.214Z,15.87
2017-06-22T11:55:49.315Z,15.77
2017-06-22T11:58:17.671Z,14.23
2017-06-22T12:00:46.878Z,15.00
2017-06-22T12:03:15.152Z,11.00
2017-06-22T12:05:43.464Z,12.80
2017-06-22T12:08:11.924Z,11.57
2017-06-22T12:10:40.242Z,10.73
2017-06-22T12:13:08.620Z,12.20
2017-06-22T12:15:37.042Z,9.20
2017-06-22T12:18:06.143Z,11.53
2017-06-22T12:20:34.482Z,8.87
2017-06-22T12:23:02.793Z,9.07
2017-06-22T12:25:31.168Z,10.00
2017-06-22T12:27:59.575Z,10.00
2017-06-22T12:30:27.883Z,13.50
2017-06-22T12:32:56.435Z,9.60
2017-06-22T12:35:24.804Z,13.60
2017-06-22T12:37:53.102Z,14.60
2017-06-22T12:40:21.432Z,12.40
2017-06-22T12:42:50.007Z,10.70
2017-06-22T12:45:18.408Z,9.07
2017-06-22T12:47:46.777Z,9.53
2017-06-22T12:50:15.865Z,8.20
2017-06-22T12:52:44.248Z,8.87
2017-06-22T12:55:13.322Z,9.10
2017-06-22T12:57:41.660Z,10.33
2017-06-22T13:00:10.198Z,10.80
2017-06-22T13:02:38.591Z,13.50
2017-06-22T13:05:07.139Z,11.77
2017-06-22T13:07:35.535Z,13.27
2017-06-22T13:10:04.604Z,13.30
2017-06-22T13:12:32.919Z,15.80
2017-06-22T13:15:01.391Z,22.67
2017-06-22T13:17:29.767Z,20.77
2017-06-22T13:19:58.134Z,21.20
2017-06-22T13:22:27.196Z,20.13
2017-06-22T13:24:55.551Z,21.43
2017-06-22T13:27:23.892Z,22.40
2017-06-22T13:29:52.267Z,19.03
2017-06-22T13:32:20.643Z,17.03
2017-06-22T13:34:49.021Z,17.30
2017-06-22T13:37:17.405Z,18.47
2017-06-22T13:39:46.527Z,14.07
2017-06-22T13:42:14.869Z,18.73
2017-06-22T13:44:43.979Z,18.43
2017-06-22T13:47:12.343Z,16.13
2017-06-22T13:49:40.650Z,17.77
2017-06-22T13:52:09.015Z,19.40
2017-06-22T13:54:37.319Z,19.20
2017-06-22T13:57:06.476Z,16.90
2017-06-22T13:59:34.835Z,16.53
2017-06-22T14:02:03.151Z,17.83
2017-06-22T14:04:31.505Z,18.23
2017-06-22T14:06:59.950Z,21.27
2017-06-22T14:09:28.278Z,19.90
2017-06-22T14:11:56.661Z,26.73
2017-06-22T14:14:25.116Z,20.03
2017-06-22T14:16:53.911Z,23.13
2017-06-22T14:19:23.012Z,19.50
2017-06-22T14:21:51.477Z,18.80
2017-06-22T14:24:19.811Z,17.53
2017-06-22T14:26:48.110Z,19.73
2017-06-22T14:29:17.310Z,18.30
2017-06-22T14:31:45.614Z,15.53
2017-06-22T14:34:13.986Z,17.33
2017-06-22T14:36:43.080Z,14.50
2017-06-22T14:39:11.564Z,16.60
2017-06-22T14:41:40.626Z,16.37
2017-06-22T14:44:09.031Z,15.40
2017-06-22T14:46:38.138Z,19.37
2017-06-22T14:49:07.221Z,18.00
2017-06-22T14:51:36.523Z,15.10
2017-06-22T14:54:04.859Z,27.97
2017-06-22T14:56:33.179Z,29.60
2017-06-22T14:59:01.566Z,14.63
2017-06-22T15:01:29.931Z,17.17
2017-06-22T15:03:59.136Z,24.37
2017-06-22T15:06:28.447Z,13.23
2017-06-22T15:08:57.116Z,15.70
2017-06-22T15:11:25.487Z,15.83
2017-06-22T15:13:54.546Z,13.27
2017-06-22T15:16:23.072Z,19.43
2017-06-22T15:18:51.442Z,12.70
2017-06-22T15:21:19.829Z,12.47
2017-06-22T15:23:48.159Z,17.33
2017-06-22T15:26:16.474Z,14.20
2017-06-22T15:28:45.668Z,14.60
2017-06-22T15:31:14.740Z,14.70
2017-06-22T15:33:43.450Z,16.10
2017-06-22T15:36:13.906Z,14.03
2017-06-22T15:38:42.650Z,13.30
2017-06-22T15:41:11.763Z,14.23
2017-06-22T15:43:41.194Z,20.40
2017-06-22T15:46:09.856Z,15.73
2017-06-22T15:48:38.232Z,15.07
2017-06-22T15:51:08.106Z,17.20
2017-06-22T15:53:36.444Z,17.60
2017-06-22T15:56:04.893Z,17.17
2017-06-22T15:58:33.980Z,14.23
2017-06-22T16:01:02.316Z,14.93
2017-06-22T16:03:30.676Z,17.90
2017-06-22T16:05:59.133Z,19.40
2017-06-22T16:08:28.218Z,18.80
2017-06-22T16:10:57.325Z,20.13
2017-06-22T16:13:26.515Z,16.67
2017-06-22T16:15:54.887Z,20.37
2017-06-22T16:18:23.267Z,18.23
2017-06-22T16:20:51.603Z,20.83
2017-06-22T16:23:20.023Z,27.80
2017-06-22T16:25:49.114Z,25.50
2017-06-22T16:28:18.220Z,20.23
2017-06-22T16:30:47.303Z,22.53
2017-06-22T16:33:15.683Z,23.60
2017-06-22T16:35:44.859Z,19.30
2017-06-22T16:38:13.232Z,16.43
2017-06-22T16:40:42.352Z,27.57
2017-06-22T16:43:11.864Z,14.97
2017-06-22T16:45:40.244Z,19.27
2017-06-22T16:48:08.581Z,32.83
2017-06-22T16:50:36.955Z,18.20
2017-06-22T16:53:05.235Z,20.20
2017-06-22T16:55:33.667Z,18.40
2017-06-22T16:58:02.733Z,19.90
2017-06-22T17:00:32.042Z,17.90
2017-06-22T17:03:00.419Z,17.80
2017-06-22T17:05:29.664Z,27.00
2017-06-22T17:07:58.002Z,17.57
2017-06-22T17:10:27.088Z,40.10
2017-06-22T17:12:56.175Z,17.97
2017-06-22T17:15:24.711Z,18.97
2017-06-22T17:17:53.219Z,20.47
2017-06-22T17:20:21.518Z,16.57
2017-06-22T17:22:50.746Z,16.97
2017-06-22T17:25:19.103Z,15.00
2017-06-22T17:27:48.255Z,22.43
2017-06-22T17:30:16.593Z,14.60
2017-06-22T17:32:45.642Z,17.87
2017-06-22T17:35:14.789Z,19.77
2017-06-22T17:37:43.139Z,16.93
2017-06-22T17:40:12.544Z,17.67
2017-06-22T17:42:40.852Z,27.60
2017-06-22T17:45:09.195Z,21.17
2017-06-22T17:47:37.674Z,17.70
2017-06-22T17:50:06.060Z,18.57
2017-06-22T17:52:34.543Z,18.60
2017-06-22T17:55:03.727Z,24.10
2017-06-22T17:57:32.855Z,23.60
2017-06-22T18:00:01.207Z,21.63
2017-06-22T18:02:30.303Z,28.20
2017-06-22T18:04:58.986Z,30.67
2017-06-22T18:07:28.084Z,30.37
2017-06-22T18:09:57.180Z,39.77
2017-06-22T18:12:26.380Z,48.23
2017-06-22T18:14:55.591Z,63.40
2017-06-22T18:17:24.482Z,45.17
2017-06-22T18:19:52.841Z,24.87
2017-06-22T18:22:21.311Z,23.90
2017-06-22T18:24:50.418Z,24.47
2017-06-22T18:27:19.037Z,31.60
2017-06-22T18:29:47.374Z,40.20
2017-06-22T18:32:16.466Z,41.33
2017-06-22T18:34:44.918Z,38.80
2017-06-22T18:37:13.238Z,34.17
2017-06-22T18:39:41.562Z,35.60
2017-06-22T18:42:09.867Z,41.00
2017-06-22T18:44:38.976Z,43.27
2017-06-22T18:47:08.036Z,41.13
2017-06-22T18:49:36.443Z,41.47
2017-06-22T18:52:05.553Z,34.90
2017-06-22T18:54:34.842Z,32.83
2017-06-22T18:57:03.920Z,31.00
2017-06-22T18:59:32.228Z,25.97
2017-06-22T19:02:00.688Z,25.47
2017-06-22T19:04:29.015Z,27.70
2017-06-22T19:07:00.268Z,30.80
2017-06-22T19:09:29.008Z,29.70
2017-06-22T19:11:57.379Z,32.87
2017-06-22T19:14:26.455Z,28.00
2017-06-22T19:16:54.955Z,27.17
2017-06-22T19:19:24.032Z,24.40
2017-06-22T19:21:52.432Z,27.80
2017-06-22T19:24:20.938Z,30.30
2017-06-22T19:26:49.246Z,32.93
2017-06-22T19:29:17.663Z,33.40
2017-06-22T19:31:46.760Z,53.43
2017-06-22T19:34:15.963Z,44.93
2017-06-22T19:36:44.298Z,50.17
2017-06-22T19:39:12.835Z,48.20
2017-06-22T19:41:41.163Z,47.50
2017-06-22T19:44:09.627Z,44.70
2017-06-22T19:46:38.035Z,50.10
2017-06-22T19:49:06.327Z,65.17
2017-06-22T19:51:35.414Z,55.60
2017-06-22T19:54:03.749Z,50.40
2017-06-22T19:56:32.112Z,37.47
2017-06-22T19:59:00.460Z,32.57
2017-06-22T20:01:28.791Z,21.70
2017-06-22T20:03:57.097Z,21.10
2017-06-22T20:06:25.705Z,19.40
2017-06-22T20:08:54.015Z,15.97
2017-06-22T20:11:22.326Z,25.30
2017-06-22T20:13:50.668Z,19.97
2017-06-22T20:16:19.001Z,6.97
2017-06-22T20:18:48.085Z,16.50
2017-06-22T20:21:16.378Z,7.70
2017-06-22T20:23:45.490Z,6.17
2017-06-22T20:26:13.835Z,7.20
2017-06-22T20:28:42.430Z,5.97
2017-06-22T20:31:10.791Z,8.33
2017-06-22T20:33:40.006Z,8.80
2017-06-22T20:36:08.355Z,11.10
2017-06-22T20:38:37.451Z,10.20
2017-06-22T20:41:06.555Z,9.37
2017-06-22T20:43:34.982Z,11.00
2017-06-22T20:46:03.326Z,17.03
2017-06-22T20:48:32.395Z,22.63
2017-06-22T20:51:01.096Z,26.93
2017-06-22T20:53:29.539Z,21.63
2017-06-22T20:55:57.850Z,25.97
2017-06-22T20:58:27.337Z,9.63
2017-06-22T21:00:55.631Z,10.80
2017-06-22T21:03:24.339Z,11.20
2017-06-22T21:05:52.652Z,9.37
2017-06-22T21:08:20.971Z,9.73
2017-06-22T21:10:50.071Z,9.90
2017-06-22T21:13:19.139Z,11.57
2017-06-22T21:15:47.851Z,10.23
2017-06-22T21:18:16.181Z,9.97
2017-06-22T21:20:44.482Z,12.80
2017-06-22T21:23:12.818Z,14.23
2017-06-22T21:25:41.137Z,12.40
2017-06-22T21:28:10.253Z,16.33
2017-06-22T21:30:39.369Z,21.80
2017-06-22T21:33:07.699Z,19.30
2017-06-22T21:35:35.991Z,18.43
2017-06-22T21:38:05.306Z,15.33
2017-06-22T21:40:34.368Z,19.63
2017-06-22T21:43:04.408Z,15.73
2017-06-22T21:45:32.781Z,16.83
2017-06-22T21:48:01.119Z,18.27
2017-06-22T21:50:29.464Z,18.37
2017-06-22T21:52:57.800Z,22.73
2017-06-22T21:55:26.899Z,25.40
2017-06-22T21:57:55.193Z,28.00
2017-06-22T22:00:23.520Z,26.60
2017-06-22T22:02:51.826Z,29.10
2017-06-22T22:05:20.148Z,25.37
2017-06-22T22:07:48.768Z,30.03
2017-06-22T22:10:17.620Z,23.50
2017-06-22T22:12:46.014Z,22.70
2017-06-22T22:15:14.367Z,31.83
2017-06-22T22:17:42.787Z,28.80
2017-06-22T22:20:11.199Z,25.23
2017-06-22T22:22:39.564Z,22.33
2017-06-22T22:25:08.027Z,21.50
2017-06-22T22:27:36.356Z,28.20
2017-06-22T22:30:05.443Z,26.47
2017-06-22T22:32:33.759Z,22.60
2017-06-22T22:35:02.099Z,25.40
2017-06-22T22:37:30.447Z,21.37
2017-06-22T22:39:58.890Z,20.57
2017-06-22T22:42:27.226Z,25.40
2017-06-22T22:44:56.298Z,24.37
2017-06-22T22:47:24.611Z,27.30
2017-06-22T22:49:52.923Z,26.07
2017-06-22T22:52:21.346Z,28.63
2017-06-22T22:54:49.662Z,28.00
2017-06-22T22:57:18.194Z,28.30
2017-06-22T22:59:47.273Z,32.77
2017-06-22T23:02:15.982Z,30.90
2017-06-22T23:04:45.054Z,40.07
2017-06-22T23:07:13.570Z,33.57
2017-06-22T23:09:41.942Z,36.40
2017-06-22T23:12:10.258Z,42.03
2017-06-22T23:14:38.705Z,37.67
2017-06-22T23:17:07.766Z,44.60
2017-06-22T23:19:36.273Z,39.50
2017-06-22T23:22:05.351Z,49.07
2017-06-22T23:24:34.472Z,45.77
2017-06-22T23:27:02.939Z,50.60
2017-06-22T23:29:32.045Z,51.70
2017-06-22T23:32:00.420Z,47.80
2017-06-22T23:34:28.800Z,46.67
2017-06-22T23:36:57.290Z,46.07
2017-06-22T23:39:26.362Z,51.00
2017-06-22T23:41:54.751Z,52.90
2017-06-22T23:44:23.122Z,49.87
2017-06-22T23:46:51.439Z,48.80
2017-06-22T23:49:19.887Z,50.80
2017-06-22T23:51:48.946Z,50.70
2017-06-22T23:54:17.656Z,52.67
2017-06-22T23:56:46.735Z,50.90
2017-06-22T23:59:15.139Z,52.40
